Terminal Aerodrome Forecast
Issued by NWS Goodland, KS

Home | Current Version | Previous Version | Text Only | Print | Product List | Glossary On
Versions: 1 2 3 4 5 6 7 8 9 10 11 12 13 14 15 16 17 18 19
345
FTUS43 KGLD 270520
TAFGLD
TAF
KGLD 270520Z 2706/2806 18011KT P6SM SCT250
     FM271900 14008KT P6SM SCT250
     FM272300 11009KT P6SM VCTS SCT050CB BKN200
     FM280400 07006KT P6SM SCT200=

USA.gov is the U.S. government's official web portal to all federal, state and local government web resources and services.